createdAt,value
2023-02-01T00:01:16.460Z,67.95
2023-02-01T00:03:43.402Z,68.00
2023-02-01T00:06:10.464Z,68.04
2023-02-01T00:08:37.423Z,67.08
2023-02-01T00:11:09.481Z,66.32
2023-02-01T00:13:41.000Z,66.15
2023-02-01T00:16:28.283Z,66.84
2023-02-01T00:19:03.922Z,67.93
2023-02-01T00:21:31.434Z,69.10
2023-02-01T00:23:58.478Z,70.41
2023-02-01T00:26:36.468Z,72.32
2023-02-01T00:29:05.797Z,72.24
2023-02-01T00:31:33.176Z,72.52
2023-02-01T00:34:00.193Z,72.95
2023-02-01T00:36:27.038Z,72.86
2023-02-01T00:38:53.815Z,72.86
2023-02-01T00:41:21.917Z,72.39
2023-02-01T00:43:49.306Z,71.30
2023-02-01T00:46:17.841Z,69.56
2023-02-01T00:48:44.846Z,68.58
2023-02-01T00:51:14.970Z,68.89
2023-02-01T00:53:41.913Z,70.03
2023-02-01T00:56:09.203Z,71.26
2023-02-01T00:58:36.102Z,72.21
2023-02-01T01:01:08.469Z,73.98
2023-02-01T01:03:40.574Z,74.36
2023-02-01T01:06:13.295Z,75.04
2023-02-01T01:08:40.756Z,74.27
2023-02-01T01:11:09.513Z,74.09
2023-02-01T01:13:36.926Z,73.97
2023-02-01T01:16:05.991Z,74.41
2023-02-01T01:18:34.091Z,76.42
2023-02-01T01:21:01.111Z,77.12
2023-02-01T01:23:28.489Z,76.48
2023-02-01T01:25:55.432Z,75.87
2023-02-01T01:28:22.251Z,75.88
2023-02-01T01:30:49.112Z,75.46
2023-02-01T01:33:15.943Z,75.53
2023-02-01T01:35:43.147Z,75.06
2023-02-01T01:38:12.352Z,74.50
2023-02-01T01:40:39.656Z,74.90
2023-02-01T01:43:15.549Z,75.94
2023-02-01T01:45:43.336Z,76.90
2023-02-01T01:48:17.328Z,78.66
2023-02-01T01:50:49.354Z,80.44
2023-02-01T01:53:20.054Z,81.97
2023-02-01T01:55:48.995Z,80.56
2023-02-01T01:58:19.154Z,80.65
2023-02-01T02:00:47.336Z,81.00
2023-02-01T02:03:40.295Z,81.06
2023-02-01T02:06:14.914Z,84.37
2023-02-01T02:08:41.862Z,84.11
2023-02-01T02:11:10.301Z,84.91
2023-02-01T02:13:42.698Z,87.66
2023-02-01T02:16:23.216Z,88.19
2023-02-01T02:19:05.271Z,90.50
2023-02-01T02:21:53.062Z,90.94
2023-02-01T02:25:04.278Z,92.81
2023-02-01T02:28:01.331Z,93.99
2023-02-01T02:30:48.277Z,94.30
2023-02-01T02:33:43.333Z,94.68
2023-02-01T02:36:16.974Z,94.98
2023-02-01T02:38:49.946Z,94.37
2023-02-01T02:41:52.623Z,93.73
2023-02-01T02:44:43.302Z,92.77
2023-02-01T02:47:25.692Z,93.14
2023-02-01T02:50:20.781Z,93.87
2023-02-01T02:53:13.137Z,93.45
2023-02-01T02:55:41.517Z,93.13
2023-02-01T02:58:28.179Z,93.30
2023-02-01T03:01:14.872Z,93.20
2023-02-01T03:04:00.839Z,93.05
2023-02-01T03:06:28.654Z,92.13
2023-02-01T03:08:58.421Z,92.48
2023-02-01T03:11:45.957Z,92.48
2023-02-01T03:14:13.760Z,91.72
2023-02-01T03:16:54.205Z,91.64
2023-02-01T03:19:26.921Z,91.33
2023-02-01T03:22:06.128Z,91.32
2023-02-01T03:24:38.384Z,90.34
2023-02-01T03:27:29.960Z,90.06
2023-02-01T03:30:06.765Z,90.38
2023-02-01T03:32:55.325Z,92.86
2023-02-01T03:35:29.676Z,90.41
2023-02-01T03:38:04.065Z,90.36
2023-02-01T03:40:34.344Z,91.29
2023-02-01T03:43:04.211Z,91.85
2023-02-01T03:45:36.729Z,91.24
2023-02-01T03:48:04.270Z,91.50
2023-02-01T03:50:32.607Z,91.43
2023-02-01T03:53:03.814Z,91.78
2023-02-01T03:55:31.256Z,91.87
2023-02-01T03:58:08.421Z,91.99
2023-02-01T04:00:35.405Z,91.93
2023-02-01T04:03:04.219Z,92.05
2023-02-01T04:05:31.430Z,92.44
2023-02-01T04:08:03.258Z,91.54
2023-02-01T04:10:30.078Z,92.75
2023-02-01T04:12:56.845Z,91.15
2023-02-01T04:15:23.676Z,91.51
2023-02-01T04:17:50.383Z,91.18
2023-02-01T04:20:17.909Z,91.48
2023-02-01T04:22:44.800Z,90.52
2023-02-01T04:25:11.708Z,90.58
2023-02-01T04:30:06.031Z,89.55
2023-02-01T04:32:32.759Z,89.40
2023-02-01T04:34:59.563Z,89.78
2023-02-01T04:37:26.361Z,89.55
2023-02-01T04:39:53.096Z,88.93
2023-02-01T04:42:19.960Z,88.33
2023-02-01T04:44:46.859Z,88.08
2023-02-01T04:47:13.718Z,88.14
2023-02-01T04:49:40.501Z,88.56
2023-02-01T04:52:07.257Z,88.36
2023-02-01T04:54:34.361Z,87.97
2023-02-01T04:57:01.186Z,87.74
2023-02-01T04:59:29.316Z,87.83
2023-02-01T05:01:56.110Z,87.36
2023-02-01T05:04:22.917Z,86.82
2023-02-01T05:06:49.666Z,86.56
2023-02-01T05:09:16.741Z,86.54
2023-02-01T05:12:01.828Z,85.70
2023-02-01T05:14:28.646Z,85.52
2023-02-01T05:16:55.325Z,84.03
2023-02-01T05:19:22.202Z,83.83
2023-02-01T05:21:48.954Z,83.69
2023-02-01T05:24:20.694Z,84.29
2023-02-01T05:26:49.021Z,84.06
2023-02-01T05:29:16.439Z,82.89
2023-02-01T05:31:46.200Z,82.61
2023-02-01T05:34:13.507Z,82.65
2023-02-01T05:36:40.372Z,82.56
2023-02-01T05:39:07.166Z,82.14
2023-02-01T05:41:33.940Z,82.48
2023-02-01T05:44:00.749Z,82.29
2023-02-01T05:46:28.565Z,82.21
2023-02-01T05:48:55.387Z,82.21
2023-02-01T05:51:22.214Z,82.11
2023-02-01T05:53:49.043Z,82.39
2023-02-01T05:56:15.894Z,81.05
2023-02-01T05:58:42.775Z,80.88
2023-02-01T06:01:09.724Z,80.67
2023-02-01T06:03:37.005Z,80.55
2023-02-01T06:06:03.957Z,80.03
2023-02-01T06:08:30.868Z,79.60
2023-02-01T06:11:01.877Z,79.51
2023-02-01T06:13:28.802Z,79.74
2023-02-01T06:15:56.895Z,78.84
2023-02-01T06:18:25.074Z,78.73
2023-02-01T06:21:01.160Z,79.13
2023-02-01T06:23:29.387Z,78.96
2023-02-01T06:26:01.881Z,78.63
2023-02-01T06:28:29.767Z,78.02
2023-02-01T06:30:56.967Z,77.35
2023-02-01T06:33:24.029Z,77.41
2023-02-01T06:35:57.845Z,77.06
2023-02-01T06:38:25.595Z,76.74
2023-02-01T06:40:56.940Z,76.15
2023-02-01T06:43:25.050Z,75.87
2023-02-01T06:45:52.555Z,74.77
2023-02-01T06:48:19.434Z,75.03
2023-02-01T06:50:46.269Z,74.27
2023-02-01T06:53:13.156Z,73.61
2023-02-01T06:55:39.893Z,73.22
2023-02-01T06:58:06.646Z,72.17
2023-02-01T07:00:33.648Z,72.49
2023-02-01T07:03:01.110Z,71.89
2023-02-01T07:05:27.851Z,72.70
2023-02-01T07:07:54.651Z,72.57
2023-02-01T07:10:21.851Z,72.79
2023-02-01T07:12:48.866Z,72.39
2023-02-01T07:15:15.699Z,73.64
2023-02-01T07:17:42.589Z,73.29
2023-02-01T07:20:09.880Z,73.32
2023-02-01T07:22:37.470Z,72.18
2023-02-01T07:25:06.519Z,72.59
2023-02-01T07:27:36.654Z,73.06
2023-02-01T07:30:04.954Z,72.38
2023-02-01T07:32:32.029Z,73.14
2023-02-01T07:34:59.350Z,72.15
2023-02-01T07:37:26.209Z,72.59
2023-02-01T07:39:53.057Z,72.63
2023-02-01T07:42:20.282Z,72.62
2023-02-01T07:44:47.100Z,72.45
2023-02-01T07:47:13.936Z,72.86
2023-02-01T07:49:40.758Z,72.79
2023-02-01T07:52:07.557Z,73.63
2023-02-01T07:54:34.355Z,74.02
2023-02-01T07:57:01.342Z,73.78
2023-02-01T07:59:28.162Z,74.07
2023-02-01T08:01:54.925Z,74.40
2023-02-01T08:04:21.786Z,75.05
2023-02-01T08:06:48.608Z,75.86
2023-02-01T08:09:15.867Z,76.67
2023-02-01T08:11:42.646Z,77.14
2023-02-01T08:14:09.457Z,77.17
2023-02-01T08:16:38.410Z,77.05
2023-02-01T08:19:05.182Z,76.60
2023-02-01T08:21:40.720Z,76.86
2023-02-01T08:24:08.945Z,76.79
2023-02-01T08:26:35.854Z,76.56
2023-02-01T08:29:05.408Z,75.89
2023-02-01T08:31:32.999Z,76.68
2023-02-01T08:34:02.025Z,76.46
2023-02-01T08:36:30.170Z,75.99
2023-02-01T08:38:57.015Z,74.98
2023-02-01T08:41:26.199Z,74.82
2023-02-01T08:43:55.174Z,74.42
2023-02-01T08:46:23.242Z,72.42
2023-02-01T08:48:50.593Z,72.44
2023-02-01T08:51:18.999Z,71.73
2023-02-01T08:53:45.978Z,72.19
2023-02-01T08:56:15.079Z,71.52
2023-02-01T08:58:42.014Z,70.72
2023-02-01T09:01:11.475Z,71.48
2023-02-01T09:03:38.279Z,71.39
2023-02-01T09:06:07.102Z,70.85
2023-02-01T09:08:34.702Z,70.46
2023-02-01T09:11:03.596Z,71.30
2023-02-01T09:13:30.990Z,71.60
2023-02-01T09:15:58.144Z,71.93
2023-02-01T09:18:25.308Z,72.39
2023-02-01T09:20:52.172Z,72.67
2023-02-01T09:23:21.294Z,72.77
2023-02-01T09:25:51.336Z,73.06
2023-02-01T09:28:19.029Z,72.92
2023-02-01T09:30:46.227Z,73.43
2023-02-01T09:33:13.281Z,73.05
2023-02-01T09:35:40.088Z,72.73
2023-02-01T09:38:06.871Z,71.72
2023-02-01T09:40:35.565Z,71.49
2023-02-01T09:43:17.616Z,70.60
2023-02-01T09:46:07.813Z,70.79
2023-02-01T09:48:38.414Z,69.95
2023-02-01T09:51:08.450Z,70.34
2023-02-01T09:53:39.338Z,69.38
2023-02-01T09:56:08.306Z,69.25
2023-02-01T09:58:43.888Z,70.02
2023-02-01T10:01:24.709Z,68.88
2023-02-01T10:03:53.663Z,68.57
2023-02-01T10:06:46.919Z,68.14
2023-02-01T10:09:50.685Z,68.56
2023-02-01T10:12:33.352Z,68.53
2023-02-01T10:15:35.729Z,68.33
2023-02-01T10:18:29.833Z,68.86
2023-02-01T10:21:09.522Z,68.69
2023-02-01T10:23:48.150Z,67.84
2023-02-01T10:26:33.118Z,67.69
2023-02-01T10:29:04.864Z,67.36
2023-02-01T10:31:36.788Z,67.56
2023-02-01T10:34:23.692Z,67.90
2023-02-01T10:36:57.135Z,68.45
2023-02-01T10:39:24.265Z,68.59
2023-02-01T10:41:51.211Z,68.44
2023-02-01T10:44:23.871Z,68.89
2023-02-01T10:46:51.709Z,69.66
2023-02-01T10:49:35.577Z,69.86
2023-02-01T10:52:10.959Z,69.38
2023-02-01T10:54:39.596Z,68.91
2023-02-01T10:57:11.779Z,68.77
2023-02-01T10:59:39.572Z,68.66
2023-02-01T11:02:31.074Z,68.49
2023-02-01T11:05:13.174Z,68.85
2023-02-01T11:07:41.055Z,69.44
2023-02-01T11:10:38.452Z,68.34
2023-02-01T11:13:06.547Z,68.14
2023-02-01T11:15:33.293Z,67.93
2023-02-01T11:18:17.082Z,68.19
2023-02-01T11:20:44.242Z,67.99
2023-02-01T11:23:16.771Z,68.04
2023-02-01T11:26:11.368Z,66.88
2023-02-01T11:28:40.406Z,67.07
2023-02-01T11:31:11.524Z,66.76
2023-02-01T11:33:40.261Z,66.76
2023-02-01T11:36:09.308Z,66.90
2023-02-01T11:38:36.247Z,66.33
2023-02-01T11:41:42.572Z,65.17
2023-02-01T11:44:42.588Z,64.89
2023-02-01T11:47:39.433Z,64.89
2023-02-01T11:50:16.139Z,65.13
2023-02-01T11:52:45.396Z,64.91
2023-02-01T11:55:32.323Z,65.52
2023-02-01T11:57:59.310Z,65.64
2023-02-01T12:00:30.616Z,65.43
2023-02-01T12:03:13.304Z,65.36
2023-02-01T12:06:08.132Z,65.96
2023-02-01T12:08:56.278Z,65.73
2023-02-01T12:11:43.347Z,65.75
2023-02-01T12:14:30.122Z,65.74
2023-02-01T12:17:20.936Z,65.21
2023-02-01T12:20:25.900Z,65.68
2023-02-01T12:23:12.620Z,65.94
2023-02-01T12:26:02.429Z,65.52
2023-02-01T12:28:38.191Z,65.07
2023-02-01T12:31:14.352Z,65.03
2023-02-01T12:34:07.380Z,64.15
2023-02-01T12:36:41.593Z,64.67
2023-02-01T12:39:08.333Z,64.20
2023-02-01T12:41:38.808Z,64.42
2023-02-01T12:44:29.463Z,63.03
2023-02-01T12:47:11.209Z,62.36
2023-02-01T12:50:07.699Z,61.16
2023-02-01T12:52:55.007Z,61.30
2023-02-01T12:55:38.316Z,60.15
2023-02-01T12:58:18.738Z,60.35
2023-02-01T13:00:49.052Z,59.39
2023-02-01T13:03:27.927Z,58.94
2023-02-01T13:06:27.779Z,58.16
2023-02-01T13:09:25.695Z,57.12
2023-02-01T13:11:54.381Z,56.03
2023-02-01T13:14:26.725Z,57.74
2023-02-01T13:16:59.272Z,55.75
2023-02-01T13:19:29.912Z,55.69
2023-02-01T13:22:02.847Z,55.28
2023-02-01T13:24:43.959Z,55.80
2023-02-01T13:27:14.404Z,54.61
2023-02-01T13:30:09.641Z,55.08
2023-02-01T13:33:51.689Z,54.53
2023-02-01T13:36:10.652Z,54.76
2023-02-01T13:38:45.391Z,54.18
2023-02-01T13:41:22.639Z,53.98
2023-02-01T13:43:52.326Z,53.72
2023-02-01T13:46:19.276Z,53.57
2023-02-01T13:48:50.605Z,53.32
2023-02-01T13:51:35.705Z,52.51
2023-02-01T13:54:03.055Z,51.79
2023-02-01T13:56:29.786Z,52.44
2023-02-01T13:58:56.791Z,50.47
2023-02-01T14:01:23.545Z,51.41
2023-02-01T14:04:01.264Z,51.42
2023-02-01T14:06:28.486Z,51.49
2023-02-01T14:09:12.550Z,50.08
2023-02-01T14:11:43.399Z,49.77
2023-02-01T14:14:15.982Z,50.16
2023-02-01T14:17:03.002Z,49.93
2023-02-01T14:19:34.584Z,49.08
2023-02-01T14:22:22.415Z,50.20
2023-02-01T14:24:55.197Z,50.69
2023-02-01T14:27:28.165Z,49.22
2023-02-01T14:30:00.781Z,49.97
2023-02-01T14:32:42.079Z,48.59
2023-02-01T14:35:22.760Z,51.39
2023-02-01T14:37:53.600Z,51.47
2023-02-01T14:40:27.977Z,49.70
2023-02-01T14:42:55.498Z,51.73
2023-02-01T14:45:26.090Z,49.92
2023-02-01T14:48:08.502Z,50.25
2023-02-01T14:50:43.746Z,50.16
2023-02-01T14:53:14.121Z,50.98
2023-02-01T14:56:02.738Z,51.62
2023-02-01T14:58:35.600Z,51.65
2023-02-01T15:01:24.819Z,54.62
2023-02-01T15:04:09.945Z,56.34
2023-02-01T15:06:44.241Z,56.82
2023-02-01T15:09:13.824Z,58.48
2023-02-01T15:11:59.165Z,58.28
2023-02-01T15:14:31.009Z,57.87
2023-02-01T15:16:57.836Z,57.99
2023-02-01T15:19:29.364Z,59.28
2023-02-01T15:21:58.339Z,61.09
2023-02-01T15:24:30.739Z,59.73
2023-02-01T15:27:04.814Z,60.27
2023-02-01T15:29:34.560Z,60.21
2023-02-01T15:32:02.124Z,60.85
2023-02-01T15:34:49.497Z,60.77
2023-02-01T15:37:17.442Z,61.46
2023-02-01T15:40:13.258Z,61.33
2023-02-01T15:42:50.326Z,61.89
2023-02-01T15:45:21.871Z,62.53
2023-02-01T15:47:50.318Z,62.71
2023-02-01T15:50:20.520Z,63.06
2023-02-01T15:52:49.529Z,63.46
2023-02-01T15:55:31.406Z,63.68
2023-02-01T15:57:58.399Z,63.73
2023-02-01T16:00:26.271Z,63.73
2023-02-01T16:03:00.219Z,64.01
2023-02-01T16:05:36.911Z,64.71
2023-02-01T16:08:16.241Z,65.05
2023-02-01T16:10:48.608Z,65.15
2023-02-01T16:13:16.477Z,65.70
2023-02-01T16:15:43.670Z,66.17
2023-02-01T16:18:11.719Z,66.35
2023-02-01T16:20:40.535Z,66.58
2023-02-01T16:23:09.001Z,67.29
2023-02-01T16:25:36.612Z,66.96
2023-02-01T16:28:03.986Z,67.75
2023-02-01T16:30:30.784Z,68.28
2023-02-01T16:32:59.576Z,67.99
2023-02-01T16:35:39.094Z,68.41
2023-02-01T16:38:09.847Z,68.62
2023-02-01T16:40:36.778Z,69.04
2023-02-01T16:43:06.023Z,68.98
2023-02-01T16:45:33.158Z,69.72
2023-02-01T16:48:00.260Z,70.34
2023-02-01T16:50:27.255Z,70.07
2023-02-01T16:52:54.366Z,69.96
2023-02-01T16:55:25.192Z,70.60
2023-02-01T16:57:52.605Z,70.35
2023-02-01T17:00:25.773Z,71.11
2023-02-01T17:02:54.251Z,71.39
2023-02-01T17:05:21.362Z,70.78
2023-02-01T17:07:48.433Z,71.23
2023-02-01T17:10:33.266Z,71.14
2023-02-01T17:13:01.181Z,71.45
2023-02-01T17:15:32.580Z,71.68
2023-02-01T17:18:02.789Z,71.37
2023-02-01T17:20:33.020Z,71.90
2023-02-01T17:23:00.322Z,72.16
2023-02-01T17:25:27.463Z,71.85
2023-02-01T17:27:54.259Z,72.44
2023-02-01T17:30:21.058Z,72.54
2023-02-01T17:32:47.895Z,72.27
2023-02-01T17:35:24.610Z,72.11
2023-02-01T17:37:52.055Z,72.56
2023-02-01T17:40:19.261Z,72.90
2023-02-01T17:42:46.497Z,72.51
2023-02-01T17:45:40.577Z,72.55
2023-02-01T17:48:08.460Z,72.64
2023-02-01T17:50:36.940Z,72.63
2023-02-01T17:53:06.106Z,72.66
2023-02-01T17:55:35.062Z,72.35
2023-02-01T17:58:01.919Z,72.35
2023-02-01T18:00:28.673Z,71.98
2023-02-01T18:02:57.402Z,71.80
2023-02-01T18:05:28.621Z,71.84
2023-02-01T18:07:55.417Z,71.64
2023-02-01T18:10:22.157Z,71.78
2023-02-01T18:12:48.984Z,72.00
2023-02-01T18:15:19.033Z,71.27
2023-02-01T18:17:45.997Z,71.21
2023-02-01T18:20:18.487Z,72.24
2023-02-01T18:22:48.614Z,71.71
2023-02-01T18:25:17.409Z,71.60
2023-02-01T18:27:44.734Z,71.48
2023-02-01T18:30:11.983Z,71.39
2023-02-01T18:32:38.932Z,71.04
2023-02-01T18:35:23.717Z,71.55
2023-02-01T18:37:51.729Z,71.47
2023-02-01T18:40:20.752Z,72.02
2023-02-01T18:42:47.661Z,72.41
2023-02-01T18:45:40.982Z,72.40
2023-02-01T18:48:09.943Z,72.69
2023-02-01T18:50:39.091Z,73.34
2023-02-01T18:53:08.048Z,73.12
2023-02-01T18:55:34.897Z,73.41
2023-02-01T18:58:04.058Z,73.93
2023-02-01T19:00:30.944Z,73.61
2023-02-01T19:02:57.853Z,74.18
2023-02-01T19:05:25.235Z,73.37
2023-02-01T19:07:54.031Z,73.63
2023-02-01T19:10:24.970Z,73.54
2023-02-01T19:12:52.214Z,73.63
2023-02-01T19:15:19.312Z,74.07
2023-02-01T19:17:48.674Z,73.77
2023-02-01T19:20:20.594Z,73.86
2023-02-01T19:22:48.249Z,73.43
2023-02-01T19:25:18.574Z,74.39
2023-02-01T19:27:45.613Z,74.13
2023-02-01T19:30:12.948Z,74.97
2023-02-01T19:32:40.122Z,74.65
2023-02-01T19:35:08.313Z,74.49
2023-02-01T19:37:35.232Z,74.22
2023-02-01T19:40:02.371Z,73.38
2023-02-01T19:42:30.128Z,73.15
2023-02-01T19:44:56.969Z,74.30
2023-02-01T19:47:23.877Z,73.74
2023-02-01T19:49:50.612Z,73.51
2023-02-01T19:52:17.770Z,73.67
2023-02-01T19:54:44.530Z,73.90
2023-02-01T19:57:11.335Z,74.21
2023-02-01T19:59:38.169Z,73.90
2023-02-01T20:02:04.216Z,75.00
2023-02-01T20:04:31.077Z,74.69
2023-02-01T20:06:57.938Z,72.96
2023-02-01T20:09:31.422Z,74.60
2023-02-01T20:11:59.242Z,73.48
2023-02-01T20:14:27.101Z,74.21
2023-02-01T20:16:53.977Z,75.57
2023-02-01T20:19:20.837Z,76.13
2023-02-01T20:21:48.226Z,76.28
2023-02-01T20:24:17.447Z,76.56
2023-02-01T20:26:45.920Z,76.41
2023-02-01T20:29:17.445Z,77.06
2023-02-01T20:31:45.898Z,77.61
2023-02-01T20:34:13.424Z,77.66
2023-02-01T20:36:40.273Z,77.50
2023-02-01T20:39:07.024Z,77.32
2023-02-01T20:41:33.856Z,77.41
2023-02-01T20:44:00.781Z,76.91
2023-02-01T20:46:27.652Z,76.22
2023-02-01T20:48:54.592Z,76.11
2023-02-01T20:51:21.951Z,75.35
2023-02-01T20:53:53.706Z,75.73
2023-02-01T20:56:21.157Z,75.71
2023-02-01T20:58:48.207Z,75.44
2023-02-01T21:01:15.632Z,75.44
2023-02-01T21:03:42.807Z,75.72
2023-02-01T21:06:11.829Z,75.00
2023-02-01T21:08:39.254Z,75.51
2023-02-01T21:11:08.690Z,75.91
2023-02-01T21:13:40.579Z,76.52
2023-02-01T21:16:12.303Z,76.62
2023-02-01T21:18:39.613Z,76.34
2023-02-01T21:21:11.578Z,75.61
2023-02-01T21:23:59.451Z,76.34
2023-02-01T21:26:27.178Z,76.16
2023-02-01T21:28:55.581Z,75.55
2023-02-01T21:31:25.671Z,76.40
2023-02-01T21:33:52.981Z,77.28
2023-02-01T21:36:20.049Z,76.77
2023-02-01T21:38:50.023Z,76.32
2023-02-01T21:41:40.725Z,76.83
2023-02-01T21:44:08.142Z,76.08
2023-02-01T21:46:35.271Z,76.93
2023-02-01T21:49:05.310Z,75.94
2023-02-01T21:51:35.508Z,76.70
2023-02-01T21:54:02.565Z,76.65
2023-02-01T21:56:29.382Z,77.17
2023-02-01T21:58:56.207Z,76.76
2023-02-01T22:01:23.629Z,75.72
2023-02-01T22:03:50.426Z,75.90
2023-02-01T22:06:47.311Z,75.69
2023-02-01T22:09:19.469Z,76.33
2023-02-01T22:11:46.988Z,76.07
2023-02-01T22:14:15.328Z,76.10
2023-02-01T22:16:42.805Z,75.36
2023-02-01T22:19:10.586Z,75.45
2023-02-01T22:21:38.961Z,75.28
2023-02-01T22:24:06.241Z,75.45
2023-02-01T22:26:33.105Z,75.33
2023-02-01T22:28:59.856Z,76.25
2023-02-01T22:31:26.712Z,76.16
2023-02-01T22:33:53.586Z,77.24
2023-02-01T22:36:20.500Z,78.27
2023-02-01T22:38:48.563Z,78.76
2023-02-01T22:41:15.663Z,77.66
2023-02-01T22:43:42.795Z,78.75
2023-02-01T22:46:12.788Z,78.65
2023-02-01T22:48:41.350Z,78.91
2023-02-01T22:51:13.779Z,78.48
2023-02-01T22:53:40.815Z,78.62
2023-02-01T22:56:08.078Z,78.44
2023-02-01T22:58:37.647Z,78.39
2023-02-01T23:01:08.764Z,79.36
2023-02-01T23:03:36.656Z,78.57
2023-02-01T23:06:04.991Z,79.16
2023-02-01T23:08:33.779Z,80.50
2023-02-01T23:11:02.130Z,80.67
2023-02-01T23:13:28.900Z,81.29
2023-02-01T23:15:55.723Z,81.36
2023-02-01T23:18:22.663Z,81.26
2023-02-01T23:20:49.510Z,81.81
2023-02-01T23:23:16.317Z,81.82
2023-02-01T23:25:50.057Z,83.04
2023-02-01T23:28:17.089Z,82.08
2023-02-01T23:30:43.783Z,82.67
2023-02-01T23:33:10.540Z,84.01
2023-02-01T23:35:37.304Z,83.67
2023-02-01T23:38:04.065Z,84.88
2023-02-01T23:40:32.145Z,84.43
2023-02-01T23:43:17.391Z,83.48
2023-02-01T23:45:44.224Z,83.11
2023-02-01T23:48:10.990Z,84.66
2023-02-01T23:50:38.302Z,83.73
2023-02-01T23:53:05.070Z,83.46
2023-02-01T23:55:31.859Z,81.79
2023-02-01T23:57:58.624Z,84.04
